Time;durP1;ratioP1;P1;durP2;ratioP2;P2;SDS_P1;SDS_P2;PMS_P1;PMS_P2;Temp;Humidity;BMP_temperature;BMP_pressure;BME280_temperature;BME280_humidity;BME280_pressure;Samples;Min_cycle;Max_cycle;Signal;HPM_P1;HPM_P2
2022/06/10 00:00:26;;;;;;;;;;;;;;;13.74;76.40;100834.28;5073644;28;19924;-86
2022/06/10 00:02:53;;;;;;;;;;;;;;;13.73;76.38;100838.25;5057186;28;19932;-86
2022/06/10 00:05:22;;;;;;;;;;;;;;;13.66;76.85;100834.28;5055006;28;20289;-86
2022/06/10 00:07:49;;;;;;;;;;;;;;;13.63;76.71;100835.78;5054274;28;19929;-86
2022/06/10 00:10:19;;;;;;;;;;;;;;;13.61;76.56;100835.28;5054505;28;19928;-85
2022/06/10 00:12:47;;;;;;;;;;;;;;;13.61;76.30;100829.69;5054910;28;19939;-86
2022/06/10 00:15:14;;;;;;;;;;;;;;;13.56;76.60;100829.81;5054609;28;20297;-85
2022/06/10 00:17:43;;;;;;;;;;;;;;;13.54;76.64;100834.91;5070454;28;19924;-85
2022/06/10 00:20:13;;;;;;;;;;;;;;;13.48;76.80;100841.81;5074433;28;19924;-85
2022/06/10 00:22:42;;;;;;;;;;;;;;;13.42;76.64;100843.09;5053793;28;19924;-85
2022/06/10 00:25:10;;;;;;;;;;;;;;;13.40;76.85;100843.44;5054426;28;19931;-86
2022/06/10 00:27:37;;;;;;;;;;;;;;;13.38;76.89;100832.56;5055289;28;19928;-85
2022/06/10 00:30:04;;;;;;;;;;;;;;;13.36;77.15;100836.84;5054963;28;19925;-85
2022/06/10 00:32:31;;;;;;;;;;;;;;;13.33;77.01;100840.28;5066654;28;20403;-85
2022/06/10 00:35:00;;;;;;;;;;;;;;;13.25;77.48;100841.03;5074132;28;20273;-85
2022/06/10 00:37:27;;;;;;;;;;;;;;;13.25;77.29;100841.88;5074136;28;19929;-86
2022/06/10 00:39:54;;;;;;;;;;;;;;;13.22;77.29;100834.13;5074526;28;19932;-85
2022/06/10 00:42:21;;;;;;;;;;;;;;;13.21;77.36;100835.28;5074390;28;20292;-85
2022/06/10 00:44:52;;;;;;;;;;;;;;;13.16;77.32;100839.03;5074092;28;19931;-85
2022/06/10 00:47:20;;;;;;;;;;;;;;;13.15;77.42;100831.00;5073617;28;19924;-86
2022/06/10 00:49:51;;;;;;;;;;;;;;;13.14;76.82;100834.91;5074302;28;19924;-85
2022/06/10 00:52:24;;;;;;;;;;;;;;;13.09;77.24;100835.88;5073586;28;19939;-85
2022/06/10 00:54:56;;;;;;;;;;;;;;;13.07;77.18;100835.38;5073626;28;20400;-85
2022/06/10 00:57:30;;;;;;;;;;;;;;;13.05;77.36;100839.66;5062703;28;19925;-85
2022/06/10 01:00:03;;;;;;;;;;;;;;;13.03;76.90;100830.75;5059623;28;19929;-83
2022/06/10 01:02:32;;;;;;;;;;;;;;;13.02;76.91;100831.91;5073703;28;19924;-85
2022/06/10 01:05:04;;;;;;;;;;;;;;;12.95;77.31;100830.38;5073993;28;19931;-85
2022/06/10 01:07:35;;;;;;;;;;;;;;;12.92;77.12;100828.25;5073781;28;19924;-86
2022/06/10 01:10:03;;;;;;;;;;;;;;;12.91;77.31;100825.78;5073663;28;19932;-85
2022/06/10 01:12:47;;;;;;;;;;;;;;;12.88;77.18;100832.00;5073901;28;20340;-85
2022/06/10 01:15:20;;;;;;;;;;;;;;;12.89;76.74;100828.91;5071978;28;19924;-86
2022/06/10 01:17:54;;;;;;;;;;;;;;;12.90;77.00;100826.94;5073199;28;20316;-86
2022/06/10 01:20:27;;;;;;;;;;;;;;;12.88;77.07;100821.66;5074183;28;20405;-85
2022/06/10 01:23:14;;;;;;;;;;;;;;;12.80;77.42;100822.44;5073429;28;19924;-85
2022/06/10 01:25:55;;;;;;;;;;;;;;;12.79;77.33;100823.59;5053831;28;19948;-85
2022/06/10 01:28:28;;;;;;;;;;;;;;;12.80;76.97;100812.06;5053674;28;19925;-85
2022/06/10 01:31:04;;;;;;;;;;;;;;;12.78;76.76;100822.75;5063769;28;20296;-85
2022/06/10 01:33:38;;;;;;;;;;;;;;;12.74;77.18;100816.13;5073782;28;19925;-86
2022/06/10 01:36:10;;;;;;;;;;;;;;;12.67;77.79;100813.00;5053811;28;19925;-86
2022/06/10 01:38:40;;;;;;;;;;;;;;;12.68;77.41;100820.25;5060206;28;19929;-86
2022/06/10 01:41:10;;;;;;;;;;;;;;;12.68;77.54;100823.03;5060258;28;19925;-86
2022/06/10 01:43:42;;;;;;;;;;;;;;;12.68;77.57;100824.97;5073701;28;20288;-85
2022/06/10 01:46:14;;;;;;;;;;;;;;;12.65;77.52;100820.88;5074784;28;19932;-86
2022/06/10 01:48:45;;;;;;;;;;;;;;;12.63;77.30;100816.75;5074211;28;19932;-86
2022/06/10 01:51:18;;;;;;;;;;;;;;;12.59;77.72;100817.38;5073822;28;19924;-86
2022/06/10 01:53:49;;;;;;;;;;;;;;;12.62;77.49;100815.09;5080824;28;19924;-84
2022/06/10 01:56:20;;;;;;;;;;;;;;;12.55;77.47;100810.78;5071167;28;19925;-86
2022/06/10 01:58:50;;;;;;;;;;;;;;;12.55;77.49;100816.38;5053971;28;19928;-86
2022/06/10 02:01:21;;;;;;;;;;;;;;;12.51;77.52;100815.34;5054140;28;19935;-85
2022/06/10 02:03:51;;;;;;;;;;;;;;;12.49;77.38;100814.84;5054081;28;19936;-86
2022/06/10 02:06:21;;;;;;;;;;;;;;;12.48;77.28;100827.19;5053345;28;19925;-86
2022/06/10 02:08:50;;;;;;;;;;;;;;;12.45;77.60;100818.59;5053652;28;19928;-86
2022/06/10 02:11:19;;;;;;;;;;;;;;;12.36;77.43;100824.13;5066731;28;19935;-86
2022/06/10 02:13:48;;;;;;;;;;;;;;;12.36;77.37;100824.13;5076197;28;20296;-85
2022/06/10 02:16:17;;;;;;;;;;;;;;;12.37;77.57;100831.38;5076249;28;20376;-86
2022/06/10 02:18:48;;;;;;;;;;;;;;;12.36;77.38;100830.53;5076995;28;20399;-85
2022/06/10 02:21:17;;;;;;;;;;;;;;;12.36;77.47;100829.72;5076817;28;19924;-86
2022/06/10 02:23:48;;;;;;;;;;;;;;;12.31;77.45;100838.25;5077545;28;19924;-86
2022/06/10 02:26:15;;;;;;;;;;;;;;;12.25;77.58;100833.91;5074579;28;19931;-86
2022/06/10 02:28:45;;;;;;;;;;;;;;;12.27;77.57;100832.44;5076585;28;20305;-86
2022/06/10 02:31:14;;;;;;;;;;;;;;;12.21;77.77;100833.72;5076906;28;19924;-86
2022/06/10 02:33:42;;;;;;;;;;;;;;;12.20;77.36;100832.09;5077032;28;20352;-86
2022/06/10 02:36:13;;;;;;;;;;;;;;;12.19;77.54;100836.00;5077788;28;20265;-86
2022/06/10 02:38:46;;;;;;;;;;;;;;;12.17;76.91;100833.50;5076742;28;19924;-85
2022/06/10 02:41:18;;;;;;;;;;;;;;;12.12;77.12;100830.03;5075055;28;20296;-86
2022/06/10 02:43:49;;;;;;;;;;;;;;;12.12;77.02;100830.84;5076535;28;20384;-86
2022/06/10 02:46:19;;;;;;;;;;;;;;;12.08;77.40;100837.41;5077383;28;19925;-85
2022/06/10 02:48:49;;;;;;;;;;;;;;;12.05;77.37;100838.00;5076219;28;19924;-85
2022/06/10 02:51:19;;;;;;;;;;;;;;;12.04;77.61;100839.16;5077309;28;19925;-86
2022/06/10 02:53:46;;;;;;;;;;;;;;;12.04;77.83;100839.16;5076544;28;19925;-85
2022/06/10 02:56:18;;;;;;;;;;;;;;;12.03;77.99;100837.50;5073829;28;19925;-86
2022/06/10 03:01:45;;;;;;;;;;;;;;;12.01;78.02;100843.44;5032094;28;19928;-86
2022/06/10 03:04:23;;;;;;;;;;;;;;;12.01;77.81;100846.22;5056465;28;20274;-86
2022/06/10 03:07:02;;;;;;;;;;;;;;;11.97;77.93;100843.22;5056644;28;19932;-86
2022/06/10 03:09:35;;;;;;;;;;;;;;;11.96;78.35;100843.53;5056619;28;19932;-85
2022/06/10 03:12:07;;;;;;;;;;;;;;;11.97;77.77;100846.00;5073450;28;19924;-85
2022/06/10 03:14:43;;;;;;;;;;;;;;;11.98;77.42;100847.66;5075774;28;19925;-85
2022/06/10 03:17:15;;;;;;;;;;;;;;;11.93;77.98;100847.78;5076260;28;19924;-86
2022/06/10 03:19:47;;;;;;;;;;;;;;;11.95;77.74;100858.63;5075732;28;19925;-85
2022/06/10 03:22:23;;;;;;;;;;;;;;;11.92;77.85;100860.06;5075550;28;19924;-86
2022/06/10 03:24:57;;;;;;;;;;;;;;;11.94;77.67;100866.16;5076321;28;19931;-86
2022/06/10 03:27:27;;;;;;;;;;;;;;;11.96;77.31;100863.06;5073683;28;19925;-86
2022/06/10 03:29:57;;;;;;;;;;;;;;;11.94;77.15;100862.56;5068981;28;20270;-85
2022/06/10 03:32:26;;;;;;;;;;;;;;;11.92;77.28;100868.44;5055528;28;19925;-86
2022/06/10 03:34:57;;;;;;;;;;;;;;;11.92;77.51;100873.22;5057546;28;19932;-85
2022/06/10 03:37:26;;;;;;;;;;;;;;;11.90;77.21;100872.69;5075630;28;19924;-85
2022/06/10 03:39:54;;;;;;;;;;;;;;;11.88;77.36;100870.22;5071523;28;19925;-85
2022/06/10 03:42:25;;;;;;;;;;;;;;;11.90;77.30;100864.31;5065200;28;20360;-85
2022/06/10 03:44:53;;;;;;;;;;;;;;;11.90;77.52;100862.34;5055065;28;20297;-85
2022/06/10 03:47:21;;;;;;;;;;;;;;;11.91;77.66;100866.00;5055870;28;19995;-85
2022/06/10 03:49:51;;;;;;;;;;;;;;;11.94;77.63;100868.13;5054837;28;19932;-85
2022/06/10 03:52:20;;;;;;;;;;;;;;;11.98;77.69;100869.16;5054911;28;19933;-86
2022/06/10 03:54:49;;;;;;;;;;;;;;;11.94;77.42;100874.53;5055283;28;19924;-85
2022/06/10 03:57:17;;;;;;;;;;;;;;;11.97;77.78;100868.34;5072011;28;19931;-86
2022/06/10 03:59:44;;;;;;;;;;;;;;;12.01;77.79;100873.28;5074748;28;19939;-85
2022/06/10 04:02:11;;;;;;;;;;;;;;;12.06;78.07;100887.97;5075022;28;20403;-85
2022/06/10 04:04:39;;;;;;;;;;;;;;;12.09;77.70;100886.50;5074586;28;19932;-85
2022/06/10 04:07:06;;;;;;;;;;;;;;;12.15;77.42;100894.44;5074695;28;20403;-86
2022/06/10 04:09:33;;;;;;;;;;;;;;;12.22;77.53;100895.97;5075100;28;20387;-85
2022/06/10 04:12:02;;;;;;;;;;;;;;;12.29;76.96;100896.38;5066974;28;19924;-85
2022/06/10 04:14:29;;;;;;;;;;;;;;;12.31;76.96;100892.13;5054996;28;19951;-85
2022/06/10 04:16:56;;;;;;;;;;;;;;;12.37;77.21;100892.84;5054700;28;19925;-85
2022/06/10 04:19:23;;;;;;;;;;;;;;;12.45;76.94;100891.25;5054846;28;19924;-85
2022/06/10 04:21:51;;;;;;;;;;;;;;;12.55;76.93;100891.81;5054315;28;19924;-85
2022/06/10 04:24:18;;;;;;;;;;;;;;;12.65;76.66;100887.13;5054922;28;19925;-86
2022/06/10 04:26:45;;;;;;;;;;;;;;;12.74;76.77;100893.59;5058900;28;19932;-84
2022/06/10 04:29:14;;;;;;;;;;;;;;;12.83;76.45;100900.06;5072886;28;19924;-85
2022/06/10 04:31:41;;;;;;;;;;;;;;;12.90;76.39;100894.84;5053990;28;19932;-85
2022/06/10 04:34:08;;;;;;;;;;;;;;;12.98;76.36;100894.06;5053976;28;19924;-86
2022/06/10 04:36:35;;;;;;;;;;;;;;;13.00;76.71;100897.38;5054220;28;19932;-85
2022/06/10 04:39:03;;;;;;;;;;;;;;;13.12;76.42;100896.78;5062710;28;20407;-85
2022/06/10 04:41:30;;;;;;;;;;;;;;;13.17;76.62;100896.63;5080682;28;19928;-85
2022/06/10 04:43:56;;;;;;;;;;;;;;;13.29;76.28;100898.03;5074814;28;19932;-85
2022/06/10 04:46:26;;;;;;;;;;;;;;;13.34;76.41;100893.13;5074437;28;20387;-85
2022/06/10 04:48:54;;;;;;;;;;;;;;;13.46;76.29;100888.88;5073992;28;19931;-85
2022/06/10 04:51:21;;;;;;;;;;;;;;;13.55;76.63;100893.38;5074402;28;19924;-85
2022/06/10 04:53:48;;;;;;;;;;;;;;;13.65;76.63;100891.41;5072486;28;19925;-85
2022/06/10 04:56:16;;;;;;;;;;;;;;;13.75;76.84;100891.97;5073621;28;19924;-86
2022/06/10 04:58:43;;;;;;;;;;;;;;;13.88;76.63;100901.38;5074490;28;19924;-85
2022/06/10 05:01:10;;;;;;;;;;;;;;;14.01;76.17;100894.78;5074340;28;19935;-86
2022/06/10 05:03:38;;;;;;;;;;;;;;;14.12;76.12;100900.91;5074848;28;20415;-86
2022/06/10 05:06:06;;;;;;;;;;;;;;;14.19;75.94;100906.84;5071702;28;19934;-86
2022/06/10 05:08:33;;;;;;;;;;;;;;;14.32;75.76;100905.03;5058506;28;19924;-85
2022/06/10 05:11:00;;;;;;;;;;;;;;;14.41;75.59;100905.03;5069549;28;19935;-85
2022/06/10 05:13:27;;;;;;;;;;;;;;;14.52;75.52;100899.91;5055018;28;19925;-86
2022/06/10 05:15:54;;;;;;;;;;;;;;;14.61;75.25;100911.97;5057882;28;19932;-85
2022/06/10 05:18:23;;;;;;;;;;;;;;;14.69;74.81;100910.31;5074181;28;19924;-85
2022/06/10 05:20:51;;;;;;;;;;;;;;;14.82;74.68;100900.91;5071242;28;19936;-85
2022/06/10 05:23:21;;;;;;;;;;;;;;;14.89;74.54;100911.59;5070406;28;19931;-86
2022/06/10 05:25:48;;;;;;;;;;;;;;;14.96;74.23;100914.75;5067368;28;19932;-86
2022/06/10 05:28:15;;;;;;;;;;;;;;;14.99;73.77;100912.09;5072750;28;19924;-86
2022/06/10 05:30:42;;;;;;;;;;;;;;;15.10;74.00;100911.72;5071366;28;20376;-86
2022/06/10 05:33:10;;;;;;;;;;;;;;;15.13;73.86;100905.44;5072927;28;19939;-86
2022/06/10 05:35:37;;;;;;;;;;;;;;;15.17;73.58;100910.06;5073125;28;19948;-83
2022/06/10 05:38:06;;;;;;;;;;;;;;;15.30;73.68;100908.19;5066808;28;20289;-86
2022/06/10 05:40:34;;;;;;;;;;;;;;;15.44;73.44;100908.00;5071345;28;20376;-86
2022/06/10 05:43:02;;;;;;;;;;;;;;;15.47;73.09;100906.47;5072741;28;19925;-86
2022/06/10 05:45:30;;;;;;;;;;;;;;;15.61;72.81;100898.66;5064152;28;19940;-86
2022/06/10 05:47:59;;;;;;;;;;;;;;;15.70;72.20;100913.47;5072538;28;19931;-86
2022/06/10 05:50:27;;;;;;;;;;;;;;;15.81;71.60;100909.16;5076555;28;20364;-85
2022/06/10 05:52:55;;;;;;;;;;;;;;;15.92;71.10;100914.38;5075023;28;19955;-88
2022/06/10 05:55:23;;;;;;;;;;;;;;;15.95;70.92;100913.69;5078634;28;19932;-89
2022/06/10 05:57:51;;;;;;;;;;;;;;;15.98;69.94;100911.03;5068482;28;19928;-90
2022/06/10 06:00:19;;;;;;;;;;;;;;;16.10;69.62;100909.47;5059462;28;20305;-90
2022/06/10 06:02:46;;;;;;;;;;;;;;;16.13;69.67;100908.78;5059296;28;19944;-90
2022/06/10 06:05:13;;;;;;;;;;;;;;;16.19;68.92;100907.41;5068473;28;20396;-86
2022/06/10 06:07:43;;;;;;;;;;;;;;;16.30;69.36;100913.47;5071485;28;19935;-85
2022/06/10 06:10:11;;;;;;;;;;;;;;;16.41;69.22;100914.69;5074696;28;20435;-88
2022/06/10 06:12:40;;;;;;;;;;;;;;;16.47;67.71;100915.31;5075571;28;19945;-90
2022/06/10 06:15:07;;;;;;;;;;;;;;;16.52;67.55;100920.72;5077213;28;19924;-89
2022/06/10 06:17:34;;;;;;;;;;;;;;;16.69;67.57;100926.16;5072398;28;20380;-88
2022/06/10 06:20:02;;;;;;;;;;;;;;;16.79;66.83;100920.13;5075716;28;19924;-85
2022/06/10 06:22:29;;;;;;;;;;;;;;;16.78;67.21;100917.69;5071235;28;19924;-84
2022/06/10 06:24:56;;;;;;;;;;;;;;;16.98;66.98;100913.19;5072541;28;19931;-83
2022/06/10 06:27:23;;;;;;;;;;;;;;;17.09;66.51;100916.38;5077392;28;19924;-83
2022/06/10 06:29:51;;;;;;;;;;;;;;;17.26;66.19;100916.22;5071469;28;19932;-84
2022/06/10 06:32:18;;;;;;;;;;;;;;;17.46;65.17;100920.09;5078245;28;19924;-83
2022/06/10 06:34:45;;;;;;;;;;;;;;;17.55;63.73;100929.25;5075868;28;20299;-84
2022/06/10 06:37:14;;;;;;;;;;;;;;;17.64;63.13;100918.69;5074157;28;19948;-84
2022/06/10 06:39:41;;;;;;;;;;;;;;;17.91;62.62;100922.03;5061396;28;19924;-84
2022/06/10 06:42:10;;;;;;;;;;;;;;;18.26;61.72;100925.13;5077160;28;20403;-83
2022/06/10 06:44:37;;;;;;;;;;;;;;;18.58;60.36;100911.19;5069903;28;19933;-84
2022/06/10 06:47:05;;;;;;;;;;;;;;;18.85;59.73;100917.19;5056622;28;19932;-84
2022/06/10 06:49:34;;;;;;;;;;;;;;;19.27;58.33;100922.38;5069383;28;20289;-85
2022/06/10 06:52:01;;;;;;;;;;;;;;;19.32;57.06;100916.47;5075812;28;19932;-89
2022/06/10 06:54:28;;;;;;;;;;;;;;;19.63;54.58;100934.59;5062538;28;19935;-85
2022/06/10 06:56:57;;;;;;;;;;;;;;;19.73;54.72;100931.25;5071407;28;19924;-85
2022/06/10 06:59:24;;;;;;;;;;;;;;;20.00;54.17;100928.69;5068669;28;20055;-84
2022/06/10 07:01:56;;;;;;;;;;;;;;;19.96;53.74;100930.59;5074575;28;20216;-85
2022/06/10 07:04:24;;;;;;;;;;;;;;;20.28;53.22;100932.19;5076567;28;19974;-87
2022/06/10 07:06:51;;;;;;;;;;;;;;;20.58;50.63;100925.97;5072718;28;19929;-85
2022/06/10 07:09:18;;;;;;;;;;;;;;;20.80;49.27;100927.22;5072213;28;19932;-84
2022/06/10 07:11:45;;;;;;;;;;;;;;;20.97;48.52;100925.13;5073021;28;19928;-85
2022/06/10 07:14:12;;;;;;;;;;;;;;;20.93;47.15;100929.91;5073071;28;19924;-87
2022/06/10 07:16:40;;;;;;;;;;;;;;;21.20;46.85;100930.84;5061108;28;19932;-86
2022/06/10 07:19:08;;;;;;;;;;;;;;;21.71;46.45;100932.56;5075560;28;19924;-85
2022/06/10 07:21:36;;;;;;;;;;;;;;;21.55;45.80;100935.56;5060748;28;19924;-86
2022/06/10 07:24:03;;;;;;;;;;;;;;;21.70;46.06;100943.09;5073987;28;20304;-85
2022/06/10 07:26:32;;;;;;;;;;;;;;;21.72;45.18;100935.03;5074279;28;19931;-85
2022/06/10 07:29:00;;;;;;;;;;;;;;;21.88;45.07;100941.38;5075998;28;20312;-87
2022/06/10 07:31:27;;;;;;;;;;;;;;;21.97;44.73;100938.28;5072913;28;19924;-83
2022/06/10 07:33:54;;;;;;;;;;;;;;;22.33;44.62;100936.00;5073147;28;19928;-86
2022/06/10 07:36:21;;;;;;;;;;;;;;;22.47;44.51;100944.72;5075657;28;19936;-88
2022/06/10 07:38:49;;;;;;;;;;;;;;;22.43;44.27;100946.69;5072962;28;19924;-88
2022/06/10 07:44:01;;;;;;;;;;;;;;;23.36;43.67;100944.16;5040580;28;19925;-83
2022/06/10 07:46:29;;;;;;;;;;;;;;;23.40;43.67;100942.19;5033553;28;19925;-86
2022/06/10 07:48:56;;;;;;;;;;;;;;;23.67;43.95;100948.53;5035253;28;19925;-89
2022/06/10 07:51:23;;;;;;;;;;;;;;;23.27;43.65;100940.84;5035745;28;19925;-88
2022/06/10 07:53:52;;;;;;;;;;;;;;;23.43;44.02;100941.38;5028435;28;19925;-91
2022/06/10 07:56:22;;;;;;;;;;;;;;;23.48;44.40;100949.56;5030558;28;19925;-89
2022/06/10 07:58:50;;;;;;;;;;;;;;;23.70;43.49;100949.75;5035820;28;19925;-87
2022/06/10 08:01:17;;;;;;;;;;;;;;;23.15;43.09;100946.78;5035820;28;19947;-82
2022/06/10 08:03:50;;;;;;;;;;;;;;;22.98;43.86;100943.31;5033317;28;19929;-90
2022/06/10 08:06:18;;;;;;;;;;;;;;;23.04;43.58;100946.69;5047131;28;19948;-90
2022/06/10 08:08:46;;;;;;;;;;;;;;;22.94;43.92;100953.03;5034009;28;19932;-85
2022/06/10 08:11:14;;;;;;;;;;;;;;;22.95;43.57;100952.63;5028993;28;19932;-88
2022/06/10 08:13:42;;;;;;;;;;;;;;;22.69;43.99;100957.16;5018079;28;20397;-88
2022/06/10 08:16:09;;;;;;;;;;;;;;;22.75;43.79;100956.84;5035219;28;19925;-88
2022/06/10 08:18:37;;;;;;;;;;;;;;;23.03;44.34;100948.69;5034378;28;20374;-86
2022/06/10 08:23:50;;;;;;;;;;;;;;;23.11;43.49;100955.28;5026248;28;19925;-86
2022/06/10 08:26:19;;;;;;;;;;;;;;;23.00;42.42;100963.66;5033241;28;20354;-86
2022/06/10 08:28:47;;;;;;;;;;;;;;;23.00;43.46;100969.31;5024903;28;19948;-88
2022/06/10 08:31:14;;;;;;;;;;;;;;;22.80;43.15;100970.69;5034195;28;19992;-87
2022/06/10 08:33:42;;;;;;;;;;;;;;;22.78;43.26;100962.56;5032217;28;20404;-87
2022/06/10 08:36:10;;;;;;;;;;;;;;;23.03;43.47;100971.41;5033374;28;19941;-88
2022/06/10 08:38:38;;;;;;;;;;;;;;;23.04;43.89;100969.41;5029514;28;19925;-86
2022/06/10 08:41:08;;;;;;;;;;;;;;;23.30;42.60;100959.94;5038451;28;19932;-87
2022/06/10 08:43:48;;;;;;;;;;;;;;;23.51;41.93;100962.19;5047836;28;19925;-89
2022/06/10 08:46:20;;;;;;;;;;;;;;;23.53;42.03;100958.97;5051327;28;19932;-87
2022/06/10 08:49:02;;;;;;;;;;;;;;;23.23;42.51;100962.72;5046456;28;19936;-88
2022/06/10 08:51:32;;;;;;;;;;;;;;;23.28;43.38;100957.47;5050219;28;19931;-87
2022/06/10 08:54:15;;;;;;;;;;;;;;;23.29;42.88;100958.31;5052907;28;19925;-87
2022/06/10 08:56:44;;;;;;;;;;;;;;;23.31;42.89;100964.44;5046397;28;19931;-86
2022/06/10 08:59:16;;;;;;;;;;;;;;;23.02;43.81;100961.25;5052322;28;19925;-86
2022/06/10 09:01:48;;;;;;;;;;;;;;;22.84;44.53;100965.88;5054036;28;19928;-85
2022/06/10 09:04:23;;;;;;;;;;;;;;;22.58;44.22;100966.75;5053105;28;19925;-86
2022/06/10 09:06:53;;;;;;;;;;;;;;;22.78;44.37;100964.56;5053330;28;19924;-86
2022/06/10 09:09:22;;;;;;;;;;;;;;;22.54;44.64;100961.03;5041390;28;19925;-87
2022/06/10 09:11:51;;;;;;;;;;;;;;;23.01;43.39;100965.28;5034517;28;20385;-86
2022/06/10 09:14:21;;;;;;;;;;;;;;;23.31;42.86;100958.75;5036856;28;19932;-89
2022/06/10 09:16:53;;;;;;;;;;;;;;;23.65;42.38;100967.19;5039061;28;20397;-85
2022/06/10 09:19:26;;;;;;;;;;;;;;;24.17;41.40;100964.38;5042968;28;19925;-86
2022/06/10 09:22:00;;;;;;;;;;;;;;;25.71;39.21;100962.19;5049281;28;20393;-86
2022/06/10 09:24:28;;;;;;;;;;;;;;;27.74;34.97;100950.47;5049512;28;19940;-85
2022/06/10 09:27:01;;;;;;;;;;;;;;;29.75;33.55;100951.75;5042467;28;19929;-86
2022/06/10 09:29:30;;;;;;;;;;;;;;;31.34;29.62;100952.38;5036400;28;19933;-88
2022/06/10 09:32:04;;;;;;;;;;;;;;;31.29;28.39;100952.88;5044845;28;19931;-88
2022/06/10 09:34:37;;;;;;;;;;;;;;;31.48;29.21;100945.50;5045469;28;19947;-87
2022/06/10 09:37:10;;;;;;;;;;;;;;;31.65;29.64;100943.44;5053479;28;19925;-88
2022/06/10 09:42:31;;;;;;;;;;;;;;;33.05;26.89;100943.28;5071148;28;19932;-86
2022/06/10 09:45:04;;;;;;;;;;;;;;;32.75;26.71;100942.53;5067775;28;19924;-85
2022/06/10 09:47:39;;;;;;;;;;;;;;;32.67;27.75;100937.44;5073815;28;19947;-87
2022/06/10 09:50:14;;;;;;;;;;;;;;;31.70;28.34;100954.41;5070815;28;19925;-87
2022/06/10 09:52:48;;;;;;;;;;;;;;;31.57;28.37;100939.13;5072985;28;19925;-85
2022/06/10 09:55:24;;;;;;;;;;;;;;;30.64;29.55;100945.66;5071638;28;19935;-85
2022/06/10 09:58:15;;;;;;;;;;;;;;;30.29;30.29;100936.47;5072816;28;20287;-84
2022/06/10 10:00:48;;;;;;;;;;;;;;;29.38;30.92;100946.19;5068831;28;19932;-83
2022/06/10 10:03:34;;;;;;;;;;;;;;;28.88;31.21;100954.22;5069145;28;19932;-83
2022/06/10 10:06:14;;;;;;;;;;;;;;;27.93;33.57;100949.94;5071246;28;19932;-86
2022/06/10 10:08:57;;;;;;;;;;;;;;;27.64;33.94;100952.19;5078860;28;19931;-85
2022/06/10 10:11:28;;;;;;;;;;;;;;;27.18;34.92;100946.75;5061948;28;19933;-85
2022/06/10 10:14:00;;;;;;;;;;;;;;;27.34;34.45;100949.97;5066786;28;19928;-88
2022/06/10 10:16:34;;;;;;;;;;;;;;;28.44;32.84;100938.78;5071328;28;19931;-85
2022/06/10 10:19:22;;;;;;;;;;;;;;;29.48;31.90;100937.44;5078542;28;19924;-84
2022/06/10 10:21:53;;;;;;;;;;;;;;;29.51;30.81;100927.13;5063880;28;19924;-82
2022/06/10 10:24:24;;;;;;;;;;;;;;;30.98;30.52;100930.16;5071192;28;20479;-87
2022/06/10 10:26:52;;;;;;;;;;;;;;;31.68;28.34;100934.69;5062916;28;19924;-86
2022/06/10 10:29:20;;;;;;;;;;;;;;;32.09;27.93;100938.22;5069702;28;19933;-91
2022/06/10 10:31:50;;;;;;;;;;;;;;;31.84;27.89;100933.09;5065715;28;19932;-88
2022/06/10 10:34:19;;;;;;;;;;;;;;;31.52;28.65;100921.13;5073660;28;20211;-86
2022/06/10 10:36:48;;;;;;;;;;;;;;;33.54;25.66;100928.56;5065816;28;19937;-85
2022/06/10 10:39:18;;;;;;;;;;;;;;;35.53;24.53;100917.13;5071751;28;19928;-83
2022/06/10 10:41:46;;;;;;;;;;;;;;;37.04;21.76;100917.03;5072980;28;19931;-81
2022/06/10 10:44:24;;;;;;;;;;;;;;;37.85;21.45;100915.56;5065969;28;19932;-80
2022/06/10 10:47:00;;;;;;;;;;;;;;;38.16;21.10;100916.00;5069878;28;19925;-80
2022/06/10 10:49:28;;;;;;;;;;;;;;;37.86;21.08;100915.06;5062585;28;19925;-80
2022/06/10 10:51:55;;;;;;;;;;;;;;;38.13;20.45;100916.97;5058515;28;19924;-80
2022/06/10 10:54:25;;;;;;;;;;;;;;;37.87;20.56;100912.97;5073732;28;19924;-80
2022/06/10 10:56:53;;;;;;;;;;;;;;;36.47;21.75;100920.50;5059678;28;19932;-81
2022/06/10 10:59:26;;;;;;;;;;;;;;;36.66;21.72;100915.50;5055282;28;19924;-82
2022/06/10 11:01:54;;;;;;;;;;;;;;;35.21;22.66;100918.44;5065841;28;19935;-80
2022/06/10 11:04:28;;;;;;;;;;;;;;;35.02;23.79;100917.53;5070724;28;19931;-82
2022/06/10 11:06:59;;;;;;;;;;;;;;;33.35;25.21;100929.63;5068812;28;20231;-81
2022/06/10 11:09:27;;;;;;;;;;;;;;;32.95;25.48;100933.72;5068392;28;19925;-81
2022/06/10 11:11:55;;;;;;;;;;;;;;;31.92;27.13;100941.09;5070054;28;20280;-81
2022/06/10 11:14:25;;;;;;;;;;;;;;;30.27;28.99;100941.03;5055603;28;19931;-81
2022/06/10 11:17:13;;;;;;;;;;;;;;;29.02;31.58;100947.50;5057976;28;19932;-83
2022/06/10 11:19:44;;;;;;;;;;;;;;;28.52;32.26;100945.28;5075153;28;19924;-83
2022/06/10 11:22:18;;;;;;;;;;;;;;;28.05;33.94;100944.91;5069799;28;19925;-83
2022/06/10 11:24:47;;;;;;;;;;;;;;;27.82;33.72;100942.63;5067544;28;20352;-80
2022/06/10 11:27:35;;;;;;;;;;;;;;;26.92;35.25;100949.75;5060639;28;19925;-78
2022/06/10 11:30:06;;;;;;;;;;;;;;;27.04;35.33;100939.06;5063633;28;19931;-83
2022/06/10 11:32:35;;;;;;;;;;;;;;;27.21;35.24;100931.59;5062050;28;20403;-84
2022/06/10 11:35:19;;;;;;;;;;;;;;;27.86;33.91;100927.06;5063556;28;19924;-86
2022/06/10 11:37:48;;;;;;;;;;;;;;;30.47;31.69;100926.69;5069222;28;20000;-84
2022/06/10 11:40:21;;;;;;;;;;;;;;;31.44;28.49;100931.19;5061163;28;19925;-82
2022/06/10 11:42:52;;;;;;;;;;;;;;;33.11;27.27;100918.38;5065110;28;19924;-86
2022/06/10 11:45:21;;;;;;;;;;;;;;;32.85;26.26;100919.63;5070127;28;19932;-84
2022/06/10 11:47:51;;;;;;;;;;;;;;;32.11;27.25;100916.34;5067811;28;20372;-83
2022/06/10 11:50:23;;;;;;;;;;;;;;;31.75;28.21;100922.19;5065511;28;19948;-84
2022/06/10 11:52:54;;;;;;;;;;;;;;;30.82;29.49;100912.81;5072146;28;19925;-86
2022/06/10 11:55:23;;;;;;;;;;;;;;;30.48;30.06;100911.06;5073118;28;19924;-83
2022/06/10 12:00:53;;;;;;;;;;;;;;;30.90;29.65;100902.81;5024881;28;20405;-79
2022/06/10 12:03:24;;;;;;;;;;;;;;;31.94;28.63;100889.59;5028934;28;21359;-81
2022/06/10 12:05:55;;;;;;;;;;;;;;;32.13;28.20;100889.94;5045169;28;19936;-86
2022/06/10 12:08:30;;;;;;;;;;;;;;;32.08;27.67;100893.38;5066617;28;19932;-81
2022/06/10 12:11:00;;;;;;;;;;;;;;;31.32;29.40;100885.81;5078436;28;19928;-80
2022/06/10 12:13:31;;;;;;;;;;;;;;;30.66;30.23;100894.25;5072299;28;20317;-80
2022/06/10 12:15:59;;;;;;;;;;;;;;;29.84;31.44;100887.22;5070742;28;19924;-81
2022/06/10 12:18:29;;;;;;;;;;;;;;;30.22;30.83;100882.00;5073505;28;19925;-78
2022/06/10 12:21:01;;;;;;;;;;;;;;;29.80;31.95;100884.44;5071322;28;19925;-80
2022/06/10 12:23:29;;;;;;;;;;;;;;;29.39;32.13;100881.81;5073069;28;19928;-78
2022/06/10 12:26:03;;;;;;;;;;;;;;;28.82;33.27;100889.19;5071820;28;19928;-79
2022/06/10 12:28:34;;;;;;;;;;;;;;;28.70;33.25;100879.91;5067709;28;20308;-76
2022/06/10 12:31:05;;;;;;;;;;;;;;;28.97;33.02;100884.06;5069765;28;20388;-76
2022/06/10 12:33:37;;;;;;;;;;;;;;;28.77;33.40;100886.78;5077786;28;19939;-79
2022/06/10 12:36:08;;;;;;;;;;;;;;;28.39;33.76;100883.97;5069736;28;19931;-78
2022/06/10 12:38:38;;;;;;;;;;;;;;;28.20;34.24;100880.53;5069088;28;19932;-79
2022/06/10 12:41:07;;;;;;;;;;;;;;;27.96;34.19;100895.91;5067659;28;20296;-78
2022/06/10 12:43:36;;;;;;;;;;;;;;;27.63;35.14;100879.00;5072549;28;19924;-76
2022/06/10 12:46:04;;;;;;;;;;;;;;;27.65;35.54;100887.16;5070383;28;19948;-80
2022/06/10 12:48:33;;;;;;;;;;;;;;;27.39;36.18;100880.84;5071746;28;19931;-81
2022/06/10 12:51:06;;;;;;;;;;;;;;;27.18;36.32;100893.22;5065479;28;19939;-79
2022/06/10 12:53:40;;;;;;;;;;;;;;;26.88;36.88;100882.41;5068435;28;19932;-81
2022/06/10 12:56:21;;;;;;;;;;;;;;;26.95;36.43;100876.63;5066078;28;19924;-82
2022/06/10 12:58:50;;;;;;;;;;;;;;;27.33;36.00;100879.66;5071176;28;20396;-82
2022/06/10 13:01:23;;;;;;;;;;;;;;;27.27;37.16;100884.19;5059637;28;19924;-81
2022/06/10 13:03:51;;;;;;;;;;;;;;;27.59;36.62;100881.06;5067828;28;20324;-76